createdAt,value
2018-07-07T00:00:20.694Z,5.23
2018-07-07T00:02:49.086Z,5.80
2018-07-07T00:05:17.505Z,5.87
2018-07-07T00:07:45.916Z,5.90
2018-07-07T00:10:15.737Z,5.90
2018-07-07T00:12:44.409Z,6.30
2018-07-07T00:15:14.490Z,5.47
2018-07-07T00:17:43.109Z,5.27
2018-07-07T00:20:11.517Z,5.13
2018-07-07T00:22:39.957Z,5.80
2018-07-07T00:25:13.812Z,4.87
2018-07-07T00:27:41.925Z,5.20
2018-07-07T00:30:10.305Z,5.73
2018-07-07T00:32:38.757Z,5.50
2018-07-07T00:35:07.190Z,5.20
2018-07-07T00:37:35.579Z,5.97
2018-07-07T00:40:04.288Z,5.43
2018-07-07T00:42:32.670Z,5.97
2018-07-07T00:45:01.137Z,5.90
2018-07-07T00:47:29.550Z,6.03
2018-07-07T00:49:57.961Z,6.70
2018-07-07T00:52:26.373Z,6.10
2018-07-07T00:54:54.803Z,5.20
2018-07-07T00:57:23.389Z,5.07
2018-07-07T00:59:52.524Z,4.83
2018-07-07T01:02:22.252Z,5.43
2018-07-07T01:04:52.825Z,5.60
2018-07-07T01:07:21.721Z,5.40
2018-07-07T01:09:50.146Z,4.90
2018-07-07T01:12:18.733Z,5.50
2018-07-07T01:14:47.466Z,5.23
2018-07-07T01:17:16.077Z,4.53
2018-07-07T01:19:44.453Z,5.40
2018-07-07T01:22:13.581Z,4.40
2018-07-07T01:24:42.514Z,4.83
2018-07-07T01:27:10.917Z,4.50
2018-07-07T01:29:40.250Z,3.77
2018-07-07T01:32:08.614Z,5.00
2018-07-07T01:34:37.160Z,4.40
2018-07-07T01:37:05.872Z,4.40
2018-07-07T01:39:34.301Z,3.90
2018-07-07T01:42:02.682Z,4.17
2018-07-07T01:44:31.076Z,3.50
2018-07-07T01:46:59.441Z,3.33
2018-07-07T01:49:27.574Z,3.70
2018-07-07T01:51:56.073Z,4.17
2018-07-07T01:54:24.430Z,3.67
2018-07-07T01:56:52.801Z,3.90
2018-07-07T01:59:21.169Z,3.70
2018-07-07T02:01:49.520Z,4.17
2018-07-07T02:04:18.425Z,3.20
2018-07-07T02:06:46.800Z,3.50
2018-07-07T02:09:15.249Z,4.10
2018-07-07T02:11:43.625Z,3.90
2018-07-07T02:14:11.985Z,4.20
2018-07-07T02:16:40.325Z,4.00
2018-07-07T02:19:08.697Z,3.40
2018-07-07T02:21:37.034Z,3.50
2018-07-07T02:24:05.645Z,4.13
2018-07-07T02:26:33.998Z,3.40
2018-07-07T02:29:02.392Z,3.47
2018-07-07T02:31:31.151Z,3.93
2018-07-07T02:33:59.542Z,4.30
2018-07-07T02:36:27.896Z,3.50
2018-07-07T02:38:56.286Z,3.73
2018-07-07T02:41:24.654Z,3.60
2018-07-07T02:43:53.038Z,3.70
2018-07-07T02:46:21.470Z,3.30
2018-07-07T02:48:49.782Z,3.60
2018-07-07T02:51:18.148Z,3.80
2018-07-07T02:53:46.510Z,3.63
2018-07-07T02:56:14.842Z,3.80
2018-07-07T02:58:43.205Z,4.07
2018-07-07T03:01:11.529Z,3.50
2018-07-07T03:03:39.879Z,3.80
2018-07-07T03:06:07.964Z,4.20
2018-07-07T03:08:36.293Z,3.53
2018-07-07T03:11:04.713Z,3.60
2018-07-07T03:13:33.049Z,4.10
2018-07-07T03:16:01.410Z,3.07
2018-07-07T03:18:29.784Z,3.30
2018-07-07T03:20:58.159Z,3.60
2018-07-07T03:23:26.498Z,3.60
2018-07-07T03:25:54.854Z,3.70
2018-07-07T03:28:23.201Z,3.73
2018-07-07T03:30:51.576Z,3.93
2018-07-07T03:33:19.901Z,3.10
2018-07-07T03:35:48.250Z,4.03
2018-07-07T03:38:16.593Z,4.00
2018-07-07T03:40:44.945Z,4.00
2018-07-07T03:43:13.294Z,3.47
2018-07-07T03:45:41.677Z,3.77
2018-07-07T03:48:10.038Z,4.47
2018-07-07T03:50:38.429Z,4.43
2018-07-07T03:53:06.822Z,4.80
2018-07-07T03:55:35.226Z,4.20
2018-07-07T03:58:03.651Z,4.27
2018-07-07T04:00:32.042Z,4.27
2018-07-07T04:03:00.409Z,4.07
2018-07-07T04:05:28.806Z,3.80
2018-07-07T04:07:57.153Z,3.73
2018-07-07T04:10:25.521Z,4.17
2018-07-07T04:12:53.884Z,3.77
2018-07-07T04:15:22.245Z,3.87
2018-07-07T04:17:50.718Z,3.90
2018-07-07T04:20:19.077Z,3.80
2018-07-07T04:22:47.425Z,3.80
2018-07-07T04:25:15.814Z,3.97
2018-07-07T04:27:44.198Z,3.60
2018-07-07T04:30:12.585Z,3.00
2018-07-07T04:32:40.923Z,3.80
2018-07-07T04:35:09.309Z,3.20
2018-07-07T04:37:37.649Z,3.03
2018-07-07T04:40:06.118Z,3.67
2018-07-07T04:42:34.489Z,2.83
2018-07-07T04:45:02.865Z,3.20
2018-07-07T04:47:31.269Z,3.80
2018-07-07T04:49:59.626Z,3.77
2018-07-07T04:52:28.018Z,2.90
2018-07-07T04:54:56.361Z,2.97
2018-07-07T04:57:24.754Z,3.93
2018-07-07T04:59:53.118Z,3.03
2018-07-07T05:02:21.449Z,2.77
2018-07-07T05:04:49.769Z,3.50
2018-07-07T05:07:18.128Z,3.23
2018-07-07T05:09:46.465Z,2.90
2018-07-07T05:12:14.851Z,2.60
2018-07-07T05:14:43.177Z,3.10
2018-07-07T05:17:11.542Z,2.80
2018-07-07T05:19:40.056Z,3.13
2018-07-07T05:22:08.495Z,2.97
2018-07-07T05:24:36.825Z,2.90
2018-07-07T05:27:05.177Z,2.83
2018-07-07T05:29:35.021Z,2.90
2018-07-07T05:32:03.451Z,3.27
2018-07-07T05:34:31.765Z,2.80
2018-07-07T05:37:00.150Z,3.00
2018-07-07T05:39:28.486Z,2.90
2018-07-07T05:41:56.846Z,2.73
2018-07-07T05:44:25.175Z,4.67
2018-07-07T05:46:53.569Z,2.90
2018-07-07T05:49:21.909Z,2.67
2018-07-07T05:51:50.258Z,3.27
2018-07-07T05:54:18.578Z,3.20
2018-07-07T05:56:46.929Z,2.50
2018-07-07T05:59:15.277Z,2.40
2018-07-07T06:01:43.781Z,2.77
2018-07-07T06:04:12.121Z,2.60
2018-07-07T06:06:40.472Z,2.73
2018-07-07T06:09:08.937Z,2.83
2018-07-07T06:11:37.401Z,2.43
2018-07-07T06:14:05.797Z,2.80
2018-07-07T06:16:34.149Z,2.77
2018-07-07T06:19:02.497Z,2.73
2018-07-07T06:21:30.874Z,2.40
2018-07-07T06:23:59.224Z,2.63
2018-07-07T06:26:27.572Z,2.53
2018-07-07T06:28:55.922Z,2.87
2018-07-07T06:31:24.277Z,2.60
2018-07-07T06:33:52.597Z,2.63
2018-07-07T06:36:20.957Z,2.87
2018-07-07T06:38:49.277Z,3.00
2018-07-07T06:41:17.653Z,2.70
2018-07-07T06:43:46.057Z,2.90
2018-07-07T06:46:14.873Z,2.90
2018-07-07T06:48:43.254Z,3.10
2018-07-07T06:51:11.672Z,2.50
2018-07-07T06:53:40.071Z,2.63
2018-07-07T06:56:08.470Z,2.87
2018-07-07T06:58:36.818Z,3.03
2018-07-07T07:01:05.221Z,2.60
2018-07-07T07:03:33.691Z,2.20
2018-07-07T07:06:02.235Z,1.90
2018-07-07T07:08:30.724Z,2.03
2018-07-07T07:10:59.101Z,2.27
2018-07-07T07:13:27.481Z,2.60
2018-07-07T07:15:55.830Z,2.23
2018-07-07T07:18:25.009Z,2.53
2018-07-07T07:20:53.381Z,2.50
2018-07-07T07:23:21.741Z,2.27
2018-07-07T07:25:50.205Z,1.97
2018-07-07T07:28:18.655Z,1.77
2018-07-07T07:30:47.026Z,1.60
2018-07-07T07:33:15.450Z,1.73
2018-07-07T07:35:43.800Z,1.40
2018-07-07T07:38:12.173Z,1.27
2018-07-07T07:40:40.533Z,1.50
2018-07-07T07:43:09.131Z,1.40
2018-07-07T07:45:37.577Z,1.70
2018-07-07T07:48:05.982Z,1.10
2018-07-07T07:50:34.356Z,1.50
2018-07-07T07:53:02.737Z,1.43
2018-07-07T07:55:31.090Z,1.77
2018-07-07T07:57:59.469Z,1.57
2018-07-07T08:00:27.825Z,1.27
2018-07-07T08:02:56.190Z,1.90
2018-07-07T08:05:24.550Z,1.70
2018-07-07T08:07:52.997Z,1.40
2018-07-07T08:10:21.329Z,1.30
2018-07-07T08:12:49.688Z,1.23
2018-07-07T08:15:18.110Z,1.40
2018-07-07T08:17:46.474Z,1.57
2018-07-07T08:20:14.842Z,1.87
2018-07-07T08:22:43.253Z,1.80
2018-07-07T08:25:11.609Z,2.07
2018-07-07T08:27:39.981Z,1.80
2018-07-07T08:30:08.345Z,1.50
2018-07-07T08:32:36.738Z,2.03
2018-07-07T08:35:05.138Z,1.63
2018-07-07T08:37:33.613Z,1.77
2018-07-07T08:40:02.090Z,1.60
2018-07-07T08:42:30.494Z,1.80
2018-07-07T08:44:58.841Z,1.63
2018-07-07T08:47:27.257Z,1.90
2018-07-07T08:49:55.637Z,1.63
2018-07-07T08:52:23.994Z,1.83
2018-07-07T08:54:52.364Z,2.50
2018-07-07T08:57:20.811Z,2.50
2018-07-07T08:59:49.182Z,2.50
2018-07-07T09:02:17.637Z,2.50
2018-07-07T09:04:46.187Z,2.10
2018-07-07T09:07:14.605Z,2.13
2018-07-07T09:09:42.969Z,2.20
2018-07-07T09:12:11.333Z,3.07
2018-07-07T09:14:39.697Z,2.53
2018-07-07T09:17:08.124Z,2.70
2018-07-07T09:19:36.510Z,2.93
2018-07-07T09:22:04.894Z,2.50
2018-07-07T09:24:33.250Z,2.60
2018-07-07T09:27:01.641Z,2.93
2018-07-07T09:29:30.014Z,3.00
2018-07-07T09:31:58.405Z,3.00
2018-07-07T09:34:26.770Z,2.70
2018-07-07T09:36:55.158Z,2.60
2018-07-07T09:39:23.526Z,2.70
2018-07-07T09:41:51.908Z,2.50
2018-07-07T09:44:20.277Z,3.30
2018-07-07T09:46:48.637Z,3.00
2018-07-07T09:49:17.022Z,3.00
2018-07-07T09:51:45.381Z,2.87
2018-07-07T09:54:13.769Z,3.63
2018-07-07T09:56:42.121Z,3.17
2018-07-07T09:59:10.487Z,3.43
2018-07-07T10:01:38.852Z,3.10
2018-07-07T10:04:07.237Z,2.90
2018-07-07T10:06:35.638Z,3.03
2018-07-07T10:09:04.320Z,2.90
2018-07-07T10:11:32.669Z,3.03
2018-07-07T10:14:01.137Z,2.73
2018-07-07T10:16:29.517Z,3.07
2018-07-07T10:18:57.873Z,2.83
2018-07-07T10:21:26.225Z,2.87
2018-07-07T10:23:55.645Z,2.90
2018-07-07T10:26:24.066Z,2.20
2018-07-07T10:28:52.479Z,3.07
2018-07-07T10:31:20.841Z,2.73
2018-07-07T10:33:49.256Z,3.03
2018-07-07T10:36:17.605Z,2.80
2018-07-07T10:38:46.020Z,2.17
2018-07-07T10:41:14.387Z,2.60
2018-07-07T10:43:44.271Z,2.67
2018-07-07T10:46:12.764Z,3.20
2018-07-07T10:48:41.051Z,2.90
2018-07-07T10:51:09.458Z,2.30
2018-07-07T10:53:37.841Z,2.50
2018-07-07T10:56:06.205Z,2.57
2018-07-07T10:58:34.569Z,2.27
2018-07-07T11:01:03.071Z,2.57
2018-07-07T11:03:31.144Z,2.40
2018-07-07T11:05:59.484Z,2.17
2018-07-07T11:08:27.846Z,2.47
2018-07-07T11:10:56.209Z,2.40
2018-07-07T11:13:24.599Z,1.97
2018-07-07T11:15:52.938Z,1.90
2018-07-07T11:18:21.425Z,2.53
2018-07-07T11:20:49.826Z,2.47
2018-07-07T11:23:18.153Z,2.20
2018-07-07T11:25:46.573Z,2.53
2018-07-07T11:28:14.881Z,1.90
2018-07-07T11:30:43.237Z,2.27
2018-07-07T11:33:11.744Z,2.67
2018-07-07T11:35:40.150Z,2.40
2018-07-07T11:38:08.501Z,2.30
2018-07-07T11:40:36.952Z,1.90
2018-07-07T11:43:05.330Z,2.67
2018-07-07T11:45:33.690Z,2.00
2018-07-07T11:48:02.187Z,2.60
2018-07-07T11:50:30.555Z,2.67
2018-07-07T11:52:58.872Z,2.30
2018-07-07T11:55:27.229Z,2.20
2018-07-07T11:57:55.556Z,2.20
2018-07-07T12:00:23.924Z,1.90
2018-07-07T12:02:52.269Z,1.97
2018-07-07T12:05:20.640Z,2.50
2018-07-07T12:08:00.711Z,2.00
2018-07-07T12:10:17.523Z,1.93
2018-07-07T12:12:45.875Z,1.50
2018-07-07T12:15:14.243Z,2.13
2018-07-07T12:17:42.640Z,1.77
2018-07-07T12:20:11.021Z,2.13
2018-07-07T12:22:39.400Z,1.93
2018-07-07T12:25:07.797Z,1.70
2018-07-07T12:27:36.140Z,1.60
2018-07-07T12:30:04.572Z,2.50
2018-07-07T12:32:33.050Z,2.00
2018-07-07T12:35:01.438Z,2.27
2018-07-07T12:37:29.813Z,2.27
2018-07-07T12:39:58.177Z,2.10
2018-07-07T12:42:26.521Z,2.63
2018-07-07T12:44:54.869Z,2.23
2018-07-07T12:47:23.317Z,2.27
2018-07-07T12:49:51.676Z,2.23
2018-07-07T12:52:20.009Z,3.10
2018-07-07T12:54:48.981Z,3.13
2018-07-07T12:57:17.317Z,2.60
2018-07-07T12:59:45.654Z,2.27
2018-07-07T13:02:13.983Z,2.57
2018-07-07T13:04:42.333Z,2.53
2018-07-07T13:07:10.662Z,2.33
2018-07-07T13:09:39.033Z,2.03
2018-07-07T13:12:07.350Z,2.97
2018-07-07T13:14:35.730Z,2.10
2018-07-07T13:17:04.071Z,2.30
2018-07-07T13:19:32.408Z,2.70
2018-07-07T13:22:00.746Z,2.90
2018-07-07T13:24:29.074Z,3.00
2018-07-07T13:26:57.461Z,3.30
2018-07-07T13:29:26.701Z,3.10
2018-07-07T13:31:55.041Z,3.67
2018-07-07T13:34:23.404Z,3.70
2018-07-07T13:36:51.754Z,3.70
2018-07-07T13:39:20.085Z,2.90
2018-07-07T13:41:48.456Z,3.07
2018-07-07T13:44:16.775Z,2.60
2018-07-07T13:46:45.195Z,2.87
2018-07-07T13:49:13.546Z,3.30
2018-07-07T13:51:42.228Z,2.67
2018-07-07T13:54:10.560Z,2.57
2018-07-07T13:56:38.880Z,2.90
2018-07-07T13:59:07.237Z,2.50
2018-07-07T14:01:35.597Z,2.60
2018-07-07T14:04:03.937Z,2.67
2018-07-07T14:06:32.293Z,2.83
2018-07-07T14:09:00.609Z,3.53
2018-07-07T14:11:28.944Z,2.70
2018-07-07T14:13:57.273Z,3.10
2018-07-07T14:16:25.629Z,4.00
2018-07-07T14:18:53.958Z,2.90
2018-07-07T14:21:22.341Z,2.70
2018-07-07T14:23:50.716Z,3.03
2018-07-07T14:26:19.047Z,3.00
2018-07-07T14:28:47.384Z,3.30
2018-07-07T14:31:15.730Z,3.20
2018-07-07T14:33:44.053Z,3.20
2018-07-07T14:36:12.137Z,2.40
2018-07-07T14:38:40.476Z,2.57
2018-07-07T14:41:12.879Z,3.30
2018-07-07T14:43:55.600Z,2.87
2018-07-07T14:46:24.537Z,2.20
2018-07-07T14:48:52.900Z,2.70
2018-07-07T14:51:21.353Z,2.67
2018-07-07T14:53:49.728Z,2.00
2018-07-07T14:56:19.585Z,2.10
2018-07-07T14:58:48.409Z,2.10
2018-07-07T15:01:16.761Z,2.50
2018-07-07T15:03:45.095Z,2.30
2018-07-07T15:06:13.469Z,2.60
2018-07-07T15:08:41.849Z,2.20
2018-07-07T15:11:17.182Z,2.50
2018-07-07T15:13:47.333Z,1.60
2018-07-07T15:16:15.865Z,2.40
2018-07-07T15:18:44.553Z,2.33
2018-07-07T15:21:13.133Z,2.23
2018-07-07T15:23:41.509Z,2.20
2018-07-07T15:26:09.873Z,1.93
2018-07-07T15:28:38.213Z,2.10
2018-07-07T15:31:06.840Z,2.03
2018-07-07T15:33:35.166Z,1.93
2018-07-07T15:36:03.630Z,1.80
2018-07-07T15:38:32.017Z,2.10
2018-07-07T15:41:00.469Z,1.73
2018-07-07T15:43:29.050Z,1.70
2018-07-07T15:45:57.436Z,2.17
2018-07-07T15:48:25.937Z,1.97
2018-07-07T15:50:54.259Z,1.97
2018-07-07T15:53:22.627Z,1.80
2018-07-07T15:55:51.207Z,2.33
2018-07-07T15:58:19.671Z,2.20
2018-07-07T16:00:47.985Z,1.80
2018-07-07T16:03:16.444Z,1.90
2018-07-07T16:05:44.785Z,1.57
2018-07-07T16:08:13.160Z,2.13
2018-07-07T16:10:41.509Z,1.70
2018-07-07T16:13:10.039Z,1.70
2018-07-07T16:15:38.353Z,1.63
2018-07-07T16:18:06.722Z,2.00
2018-07-07T16:20:35.038Z,1.90
2018-07-07T16:23:03.381Z,1.70
2018-07-07T16:25:31.717Z,2.03
2018-07-07T16:28:00.073Z,2.20
2018-07-07T16:30:28.390Z,2.20
2018-07-07T16:32:56.737Z,1.80
2018-07-07T16:35:25.121Z,1.97
2018-07-07T16:37:53.466Z,2.00
2018-07-07T16:40:21.781Z,2.00
2018-07-07T16:42:50.676Z,2.00
2018-07-07T16:45:19.096Z,2.07
2018-07-07T16:47:47.505Z,1.70
2018-07-07T16:50:15.929Z,2.20
2018-07-07T16:52:44.338Z,1.87
2018-07-07T16:55:12.557Z,2.33
2018-07-07T16:57:41.456Z,2.60
2018-07-07T17:00:09.869Z,2.50
2018-07-07T17:02:38.257Z,3.00
2018-07-07T17:05:06.660Z,1.93
2018-07-07T17:07:35.080Z,2.10
2018-07-07T17:10:03.925Z,1.73
2018-07-07T17:12:32.321Z,1.63
2018-07-07T17:15:01.573Z,2.20
2018-07-07T17:17:29.993Z,2.47
2018-07-07T17:19:58.401Z,2.10
2018-07-07T17:22:26.820Z,2.20
2018-07-07T17:24:55.693Z,2.43
2018-07-07T17:27:24.765Z,3.77
2018-07-07T17:29:53.169Z,6.97
2018-07-07T17:32:21.673Z,3.27
2018-07-07T17:34:50.094Z,5.90
2018-07-07T17:37:18.568Z,3.73
2018-07-07T17:39:46.986Z,3.13
2018-07-07T17:42:15.447Z,2.70
2018-07-07T17:44:43.825Z,2.20
2018-07-07T17:47:12.229Z,2.70
2018-07-07T17:49:40.697Z,2.40
2018-07-07T17:52:09.104Z,4.10
2018-07-07T17:54:37.505Z,3.13
2018-07-07T17:57:05.881Z,4.67
2018-07-07T17:59:34.276Z,2.43
2018-07-07T18:02:02.661Z,3.53
2018-07-07T18:04:31.051Z,4.00
2018-07-07T18:06:59.405Z,4.60
2018-07-07T18:09:27.770Z,3.57
2018-07-07T18:11:56.141Z,3.20
2018-07-07T18:14:24.192Z,3.50
2018-07-07T18:16:52.525Z,2.83
2018-07-07T18:19:20.930Z,3.50
2018-07-07T18:21:49.261Z,2.40
2018-07-07T18:24:17.636Z,2.40
2018-07-07T18:26:45.701Z,2.10
2018-07-07T18:29:14.097Z,2.20
2018-07-07T18:31:42.489Z,2.17
2018-07-07T18:34:10.877Z,2.03
2018-07-07T18:36:39.309Z,2.20
2018-07-07T18:39:07.693Z,1.90
2018-07-07T18:41:36.082Z,1.53
2018-07-07T18:44:05.118Z,1.73
2018-07-07T18:46:33.425Z,2.00
2018-07-07T18:49:02.116Z,2.60
2018-07-07T18:51:30.497Z,2.10
2018-07-07T18:53:58.886Z,2.20
2018-07-07T18:56:27.294Z,2.00
2018-07-07T18:58:55.660Z,2.17
2018-07-07T19:01:24.212Z,1.80
2018-07-07T19:03:52.644Z,2.17
2018-07-07T19:06:21.012Z,1.57
2018-07-07T19:08:49.721Z,2.10
2018-07-07T19:11:19.965Z,2.00
2018-07-07T19:13:48.887Z,1.70
2018-07-07T19:16:18.363Z,1.83
2018-07-07T19:18:48.593Z,2.20
2018-07-07T19:21:22.863Z,1.80
2018-07-07T19:23:56.812Z,1.77
2018-07-07T19:26:55.813Z,2.43
2018-07-07T19:29:24.326Z,3.00
2018-07-07T19:31:58.601Z,2.13
2018-07-07T19:34:32.504Z,1.93
2018-07-07T19:37:06.369Z,2.00
2018-07-07T19:39:35.388Z,2.03
2018-07-07T19:42:03.825Z,1.87
2018-07-07T19:44:32.168Z,2.50
2018-07-07T19:47:00.807Z,1.87
2018-07-07T19:49:30.080Z,2.10
2018-07-07T19:51:59.793Z,1.93
2018-07-07T19:54:28.929Z,2.40
2018-07-07T19:56:57.816Z,1.93
2018-07-07T19:59:26.973Z,1.70
2018-07-07T20:01:55.725Z,2.07
2018-07-07T20:04:24.478Z,1.73
2018-07-07T20:06:52.824Z,1.97
2018-07-07T20:09:21.273Z,2.40
2018-07-07T20:11:49.934Z,2.30
2018-07-07T20:14:23.117Z,2.10
2018-07-07T20:17:04.445Z,2.27
2018-07-07T20:19:38.285Z,1.60
2018-07-07T20:22:07.523Z,2.00
2018-07-07T20:24:37.197Z,2.17
2018-07-07T20:27:11.600Z,2.23
2018-07-07T20:29:39.977Z,2.13
2018-07-07T20:32:13.742Z,1.97
2018-07-07T20:34:42.125Z,2.33
2018-07-07T20:37:10.930Z,2.23
2018-07-07T20:39:39.794Z,3.07
2018-07-07T20:42:08.737Z,2.60
2018-07-07T20:44:38.035Z,2.77
2018-07-07T20:47:06.595Z,2.50
2018-07-07T20:49:35.013Z,2.40
2018-07-07T20:52:03.482Z,2.40
2018-07-07T20:54:31.872Z,5.70
2018-07-07T20:57:00.280Z,2.77
2018-07-07T20:59:28.693Z,3.10
2018-07-07T21:01:57.043Z,3.13
2018-07-07T21:04:25.445Z,3.90
2018-07-07T21:06:53.825Z,2.60
2018-07-07T21:09:22.201Z,4.17
2018-07-07T21:11:50.561Z,2.90
2018-07-07T21:14:18.936Z,2.70
2018-07-07T21:16:47.278Z,2.70
2018-07-07T21:19:15.633Z,3.10
2018-07-07T21:21:44.083Z,2.80
2018-07-07T21:24:12.440Z,2.43
2018-07-07T21:26:40.801Z,3.63
2018-07-07T21:29:09.165Z,3.40
2018-07-07T21:31:37.538Z,2.90
2018-07-07T21:34:06.118Z,3.30
2018-07-07T21:36:34.537Z,3.77
2018-07-07T21:39:03.071Z,3.17
2018-07-07T21:41:31.432Z,4.30
2018-07-07T21:43:59.785Z,3.23
2018-07-07T21:46:28.168Z,8.53
2018-07-07T21:48:56.518Z,5.60
2018-07-07T21:51:24.880Z,4.47
2018-07-07T21:53:53.353Z,3.90
2018-07-07T21:56:21.578Z,3.53
2018-07-07T21:58:54.129Z,3.60
2018-07-07T22:01:36.869Z,4.30
2018-07-07T22:04:10.794Z,6.10
2018-07-07T22:06:45.082Z,3.47
2018-07-07T22:09:13.427Z,4.03
2018-07-07T22:11:41.786Z,3.63
2018-07-07T22:14:10.113Z,3.73
2018-07-07T22:16:40.035Z,4.10
2018-07-07T22:19:08.368Z,3.30
2018-07-07T22:21:48.091Z,3.00
2018-07-07T22:24:16.417Z,2.73
2018-07-07T22:26:45.429Z,3.03
2018-07-07T22:29:13.768Z,2.50
2018-07-07T22:31:42.119Z,2.80
2018-07-07T22:34:10.456Z,2.70
2018-07-07T22:36:38.816Z,2.00
2018-07-07T22:39:07.130Z,2.03
2018-07-07T22:42:01.674Z,2.50
2018-07-07T22:44:30.346Z,1.83
2018-07-07T22:46:58.864Z,2.20
2018-07-07T22:49:27.888Z,2.27
2018-07-07T22:51:56.297Z,1.90
2018-07-07T22:54:24.653Z,2.40
2018-07-07T22:56:53.041Z,2.27
2018-07-07T22:59:21.387Z,2.07
2018-07-07T23:01:49.804Z,2.53
2018-07-07T23:04:18.162Z,2.20
2018-07-07T23:06:46.920Z,2.80
2018-07-07T23:09:16.237Z,3.03
2018-07-07T23:11:44.629Z,3.03
2018-07-07T23:14:12.977Z,2.27
2018-07-07T23:16:41.350Z,2.77
2018-07-07T23:19:09.857Z,2.37
2018-07-07T23:21:38.351Z,1.90
2018-07-07T23:24:06.824Z,2.43
2018-07-07T23:26:35.219Z,2.63
2018-07-07T23:29:04.197Z,2.60
2018-07-07T23:31:32.632Z,2.70
2018-07-07T23:34:02.537Z,2.50
2018-07-07T23:36:30.913Z,2.43
2018-07-07T23:38:59.462Z,2.63
2018-07-07T23:41:27.866Z,2.40
2018-07-07T23:43:56.222Z,2.20
2018-07-07T23:46:24.620Z,2.50
2018-07-07T23:48:52.963Z,2.33
2018-07-07T23:51:21.335Z,2.60
2018-07-07T23:53:49.704Z,2.50
2018-07-07T23:56:18.045Z,2.80
2018-07-07T23:58:46.553Z,2.33
